sensor_id;sensor_type;location;lat;lon;timestamp;pressure;altitude;pressure_sealevel;temperature
12918;BMP180;6526;54.312;13.092;2023-01-25T00:00:47;104159.00;;;2.30
12918;BMP180;6526;54.312;13.092;2023-01-25T00:03:13;104163.00;;;2.30
12918;BMP180;6526;54.312;13.092;2023-01-25T00:05:39;104152.00;;;2.40
12918;BMP180;6526;54.312;13.092;2023-01-25T00:08:05;104160.00;;;2.40
12918;BMP180;6526;54.312;13.092;2023-01-25T00:10:31;104148.00;;;2.30
12918;BMP180;6526;54.312;13.092;2023-01-25T00:12:57;104147.00;;;2.40
12918;BMP180;6526;54.312;13.092;2023-01-25T00:15:23;104146.00;;;2.40
12918;BMP180;6526;54.312;13.092;2023-01-25T00:17:49;104143.00;;;2.40
12918;BMP180;6526;54.312;13.092;2023-01-25T00:20:16;104139.00;;;2.40
12918;BMP180;6526;54.312;13.092;2023-01-25T00:22:42;104133.00;;;2.50
12918;BMP180;6526;54.312;13.092;2023-01-25T00:25:08;104126.00;;;2.50
12918;BMP180;6526;54.312;13.092;2023-01-25T00:27:34;104129.00;;;2.40
12918;BMP180;6526;54.312;13.092;2023-01-25T00:30:00;104132.00;;;2.40
12918;BMP180;6526;54.312;13.092;2023-01-25T00:33:23;104120.00;;;2.30
12918;BMP180;6526;54.312;13.092;2023-01-25T00:35:32;104084.00;;;2.30
12918;BMP180;6526;54.312;13.092;2023-01-25T00:38:01;104124.00;;;2.40
12918;BMP180;6526;54.312;13.092;2023-01-25T00:40:31;104108.00;;;2.30
12918;BMP180;6526;54.312;13.092;2023-01-25T00:42:57;104112.00;;;2.40
12918;BMP180;6526;54.312;13.092;2023-01-25T00:45:25;104117.00;;;2.50
12918;BMP180;6526;54.312;13.092;2023-01-25T00:47:54;104107.00;;;2.40
12918;BMP180;6526;54.312;13.092;2023-01-25T00:50:20;104112.00;;;2.30
12918;BMP180;6526;54.312;13.092;2023-01-25T00:52:46;104114.00;;;2.40
12918;BMP180;6526;54.312;13.092;2023-01-25T00:55:12;104113.00;;;2.40
12918;BMP180;6526;54.312;13.092;2023-01-25T00:57:38;104108.00;;;2.40
12918;BMP180;6526;54.312;13.092;2023-01-25T01:00:05;104109.00;;;2.20
12918;BMP180;6526;54.312;13.092;2023-01-25T01:02:31;104115.00;;;2.40
12918;BMP180;6526;54.312;13.092;2023-01-25T01:04:57;104103.00;;;2.30
12918;BMP180;6526;54.312;13.092;2023-01-25T01:07:23;104100.00;;;2.40
12918;BMP180;6526;54.312;13.092;2023-01-25T01:09:49;104103.00;;;2.40
12918;BMP180;6526;54.312;13.092;2023-01-25T01:12:15;104105.00;;;2.30
12918;BMP180;6526;54.312;13.092;2023-01-25T01:14:41;104100.00;;;2.30
12918;BMP180;6526;54.312;13.092;2023-01-25T01:17:07;104102.00;;;2.20
12918;BMP180;6526;54.312;13.092;2023-01-25T01:19:33;104096.00;;;2.20
12918;BMP180;6526;54.312;13.092;2023-01-25T01:21:59;104031.00;;;2.10
12918;BMP180;6526;54.312;13.092;2023-01-25T01:24:25;104083.00;;;2.30
12918;BMP180;6526;54.312;13.092;2023-01-25T01:26:51;104089.00;;;2.10
12918;BMP180;6526;54.312;13.092;2023-01-25T01:29:17;104078.00;;;2.00
12918;BMP180;6526;54.312;13.092;2023-01-25T01:31:43;104080.00;;;1.90
12918;BMP180;6526;54.312;13.092;2023-01-25T01:34:12;104079.00;;;1.90
12918;BMP180;6526;54.312;13.092;2023-01-25T01:36:39;104085.00;;;1.90
12918;BMP180;6526;54.312;13.092;2023-01-25T01:39:05;104086.00;;;2.00
12918;BMP180;6526;54.312;13.092;2023-01-25T01:41:31;104075.00;;;2.00
12918;BMP180;6526;54.312;13.092;2023-01-25T01:43:57;104081.00;;;2.10
12918;BMP180;6526;54.312;13.092;2023-01-25T01:46:38;104075.00;;;2.10
12918;BMP180;6526;54.312;13.092;2023-01-25T01:49:11;104068.00;;;2.10
12918;BMP180;6526;54.312;13.092;2023-01-25T01:51:58;104070.00;;;2.10
12918;BMP180;6526;54.312;13.092;2023-01-25T01:57:27;104060.00;;;1.90
12918;BMP180;6526;54.312;13.092;2023-01-25T01:59:59;104056.00;;;2.10
12918;BMP180;6526;54.312;13.092;2023-01-25T02:02:27;104069.00;;;2.00
12918;BMP180;6526;54.312;13.092;2023-01-25T02:04:57;104058.00;;;2.00
12918;BMP180;6526;54.312;13.092;2023-01-25T02:07:33;104058.00;;;2.00
12918;BMP180;6526;54.312;13.092;2023-01-25T02:10:01;104061.00;;;2.00
12918;BMP180;6526;54.312;13.092;2023-01-25T02:12:27;104045.00;;;2.00
12918;BMP180;6526;54.312;13.092;2023-01-25T02:14:54;104048.00;;;1.90
12918;BMP180;6526;54.312;13.092;2023-01-25T02:17:33;104044.00;;;2.00
12918;BMP180;6526;54.312;13.092;2023-01-25T02:22:40;104044.00;;;2.10
12918;BMP180;6526;54.312;13.092;2023-01-25T02:25:12;104033.00;;;2.10
12918;BMP180;6526;54.312;13.092;2023-01-25T02:27:43;104032.00;;;2.20
12918;BMP180;6526;54.312;13.092;2023-01-25T02:30:11;104040.00;;;2.10
12918;BMP180;6526;54.312;13.092;2023-01-25T02:32:37;104037.00;;;2.10
12918;BMP180;6526;54.312;13.092;2023-01-25T02:35:04;104039.00;;;2.10
12918;BMP180;6526;54.312;13.092;2023-01-25T02:37:31;104027.00;;;2.10
12918;BMP180;6526;54.312;13.092;2023-01-25T02:39:57;104025.00;;;2.10
12918;BMP180;6526;54.312;13.092;2023-01-25T02:42:23;104024.00;;;1.90
12918;BMP180;6526;54.312;13.092;2023-01-25T02:44:50;104017.00;;;2.00
12918;BMP180;6526;54.312;13.092;2023-01-25T02:47:16;104028.00;;;1.80
12918;BMP180;6526;54.312;13.092;2023-01-25T02:49:42;104016.00;;;2.00
12918;BMP180;6526;54.312;13.092;2023-01-25T02:52:08;104021.00;;;2.00
12918;BMP180;6526;54.312;13.092;2023-01-25T02:54:34;104016.00;;;2.10
12918;BMP180;6526;54.312;13.092;2023-01-25T02:57:00;104010.00;;;2.10
12918;BMP180;6526;54.312;13.092;2023-01-25T02:59:26;104005.00;;;2.00
12918;BMP180;6526;54.312;13.092;2023-01-25T03:01:52;104008.00;;;2.10
12918;BMP180;6526;54.312;13.092;2023-01-25T03:04:18;103996.00;;;2.10
12918;BMP180;6526;54.312;13.092;2023-01-25T03:06:44;103999.00;;;2.20
12918;BMP180;6526;54.312;13.092;2023-01-25T03:09:11;103989.00;;;2.10
12918;BMP180;6526;54.312;13.092;2023-01-25T03:11:37;103997.00;;;2.10
12918;BMP180;6526;54.312;13.092;2023-01-25T03:14:03;103986.00;;;2.20
12918;BMP180;6526;54.312;13.092;2023-01-25T03:16:30;103982.00;;;2.30
12918;BMP180;6526;54.312;13.092;2023-01-25T03:18:56;103982.00;;;2.20
12918;BMP180;6526;54.312;13.092;2023-01-25T03:21:23;103970.00;;;2.20
12918;BMP180;6526;54.312;13.092;2023-01-25T03:23:58;103970.00;;;2.20
12918;BMP180;6526;54.312;13.092;2023-01-25T03:26:25;103959.00;;;2.20
12918;BMP180;6526;54.312;13.092;2023-01-25T03:28:52;103963.00;;;2.00
12918;BMP180;6526;54.312;13.092;2023-01-25T03:31:18;103964.00;;;1.90
12918;BMP180;6526;54.312;13.092;2023-01-25T03:33:45;103957.00;;;1.80
12918;BMP180;6526;54.312;13.092;2023-01-25T03:36:11;103956.00;;;1.80
12918;BMP180;6526;54.312;13.092;2023-01-25T03:38:37;103954.00;;;1.80
12918;BMP180;6526;54.312;13.092;2023-01-25T03:41:04;103938.00;;;1.70
12918;BMP180;6526;54.312;13.092;2023-01-25T03:43:30;103938.00;;;1.70
12918;BMP180;6526;54.312;13.092;2023-01-25T03:45:58;103937.00;;;1.80
12918;BMP180;6526;54.312;13.092;2023-01-25T03:48:25;103927.00;;;1.80
12918;BMP180;6526;54.312;13.092;2023-01-25T03:50:56;103942.00;;;1.70
12918;BMP180;6526;54.312;13.092;2023-01-25T03:53:23;103936.00;;;1.80
12918;BMP180;6526;54.312;13.092;2023-01-25T03:58:24;103917.00;;;1.80
12918;BMP180;6526;54.312;13.092;2023-01-25T04:00:52;103922.00;;;1.80
12918;BMP180;6526;54.312;13.092;2023-01-25T04:03:19;103910.00;;;1.60
12918;BMP180;6526;54.312;13.092;2023-01-25T04:05:46;103923.00;;;1.60
12918;BMP180;6526;54.312;13.092;2023-01-25T04:08:12;103913.00;;;1.50
12918;BMP180;6526;54.312;13.092;2023-01-25T04:10:39;103914.00;;;1.60
12918;BMP180;6526;54.312;13.092;2023-01-25T04:13:05;103921.00;;;1.50
12918;BMP180;6526;54.312;13.092;2023-01-25T04:15:31;103903.00;;;1.40
12918;BMP180;6526;54.312;13.092;2023-01-25T04:17:57;103917.00;;;1.40
12918;BMP180;6526;54.312;13.092;2023-01-25T04:20:23;103914.00;;;1.60
12918;BMP180;6526;54.312;13.092;2023-01-25T04:22:49;103909.00;;;1.60
12918;BMP180;6526;54.312;13.092;2023-01-25T04:25:15;103899.00;;;1.70
12918;BMP180;6526;54.312;13.092;2023-01-25T04:27:41;103901.00;;;1.50
12918;BMP180;6526;54.312;13.092;2023-01-25T04:30:08;103909.00;;;1.50
12918;BMP180;6526;54.312;13.092;2023-01-25T04:32:36;103897.00;;;1.50
12918;BMP180;6526;54.312;13.092;2023-01-25T04:35:02;103884.00;;;1.50
12918;BMP180;6526;54.312;13.092;2023-01-25T04:37:28;103906.00;;;1.50
12918;BMP180;6526;54.312;13.092;2023-01-25T04:39:54;103889.00;;;1.60
12918;BMP180;6526;54.312;13.092;2023-01-25T04:42:20;103885.00;;;1.50
12918;BMP180;6526;54.312;13.092;2023-01-25T04:44:46;103872.00;;;1.50
12918;BMP180;6526;54.312;13.092;2023-01-25T04:47:12;103870.00;;;1.40
12918;BMP180;6526;54.312;13.092;2023-01-25T04:49:38;103874.00;;;1.50
12918;BMP180;6526;54.312;13.092;2023-01-25T04:52:04;103872.00;;;1.40
12918;BMP180;6526;54.312;13.092;2023-01-25T04:54:30;103870.00;;;1.40
12918;BMP180;6526;54.312;13.092;2023-01-25T04:56:56;103868.00;;;1.50
12918;BMP180;6526;54.312;13.092;2023-01-25T04:59:22;103853.00;;;1.60
12918;BMP180;6526;54.312;13.092;2023-01-25T05:01:48;103860.00;;;1.60
12918;BMP180;6526;54.312;13.092;2023-01-25T05:04:14;103855.00;;;1.70
12918;BMP180;6526;54.312;13.092;2023-01-25T05:06:40;103858.00;;;1.80
12918;BMP180;6526;54.312;13.092;2023-01-25T05:09:07;103862.00;;;1.70
12918;BMP180;6526;54.312;13.092;2023-01-25T05:11:34;103854.00;;;1.70
12918;BMP180;6526;54.312;13.092;2023-01-25T05:14:00;103854.00;;;1.80
12918;BMP180;6526;54.312;13.092;2023-01-25T05:16:26;103852.00;;;1.60
12918;BMP180;6526;54.312;13.092;2023-01-25T05:18:54;103842.00;;;1.50
12918;BMP180;6526;54.312;13.092;2023-01-25T05:21:20;103834.00;;;1.40
12918;BMP180;6526;54.312;13.092;2023-01-25T05:24:06;103849.00;;;1.40
12918;BMP180;6526;54.312;13.092;2023-01-25T05:26:32;103846.00;;;1.40
12918;BMP180;6526;54.312;13.092;2023-01-25T05:29:16;103840.00;;;1.40
12918;BMP180;6526;54.312;13.092;2023-01-25T05:31:42;103837.00;;;1.40
12918;BMP180;6526;54.312;13.092;2023-01-25T05:34:08;103843.00;;;1.40
12918;BMP180;6526;54.312;13.092;2023-01-25T05:36:34;103833.00;;;1.50
12918;BMP180;6526;54.312;13.092;2023-01-25T05:39:00;103839.00;;;1.50
12918;BMP180;6526;54.312;13.092;2023-01-25T05:41:27;103830.00;;;1.40
12918;BMP180;6526;54.312;13.092;2023-01-25T05:43:53;103834.00;;;1.40
12918;BMP180;6526;54.312;13.092;2023-01-25T05:46:19;103840.00;;;1.40
12918;BMP180;6526;54.312;13.092;2023-01-25T05:48:47;103831.00;;;1.40
12918;BMP180;6526;54.312;13.092;2023-01-25T05:51:13;103833.00;;;1.40
12918;BMP180;6526;54.312;13.092;2023-01-25T05:53:39;103820.00;;;1.50
12918;BMP180;6526;54.312;13.092;2023-01-25T05:56:06;103818.00;;;1.50
12918;BMP180;6526;54.312;13.092;2023-01-25T05:58:32;103832.00;;;1.60
12918;BMP180;6526;54.312;13.092;2023-01-25T06:01:02;103825.00;;;1.50
12918;BMP180;6526;54.312;13.092;2023-01-25T06:03:28;103820.00;;;1.60
12918;BMP180;6526;54.312;13.092;2023-01-25T06:05:56;103816.00;;;1.60
12918;BMP180;6526;54.312;13.092;2023-01-25T06:08:22;103810.00;;;1.60
12918;BMP180;6526;54.312;13.092;2023-01-25T06:10:49;103813.00;;;1.70
12918;BMP180;6526;54.312;13.092;2023-01-25T06:13:16;103815.00;;;1.80
12918;BMP180;6526;54.312;13.092;2023-01-25T06:15:42;103815.00;;;1.60
12918;BMP180;6526;54.312;13.092;2023-01-25T06:18:08;103819.00;;;1.40
12918;BMP180;6526;54.312;13.092;2023-01-25T06:20:34;103809.00;;;1.40
12918;BMP180;6526;54.312;13.092;2023-01-25T06:23:00;103799.00;;;1.50
12918;BMP180;6526;54.312;13.092;2023-01-25T06:25:26;103802.00;;;1.70
12918;BMP180;6526;54.312;13.092;2023-01-25T06:27:54;103792.00;;;1.50
12918;BMP180;6526;54.312;13.092;2023-01-25T06:30:20;103795.00;;;1.50
12918;BMP180;6526;54.312;13.092;2023-01-25T06:32:46;103792.00;;;1.50
12918;BMP180;6526;54.312;13.092;2023-01-25T06:35:12;103804.00;;;1.50
12918;BMP180;6526;54.312;13.092;2023-01-25T06:37:38;103796.00;;;1.40
12918;BMP180;6526;54.312;13.092;2023-01-25T06:40:05;103792.00;;;1.40
12918;BMP180;6526;54.312;13.092;2023-01-25T06:42:31;103792.00;;;1.50
12918;BMP180;6526;54.312;13.092;2023-01-25T06:44:57;103792.00;;;1.60
12918;BMP180;6526;54.312;13.092;2023-01-25T06:47:23;103786.00;;;1.50
12918;BMP180;6526;54.312;13.092;2023-01-25T06:49:49;103793.00;;;1.50
12918;BMP180;6526;54.312;13.092;2023-01-25T06:52:15;103794.00;;;1.50
12918;BMP180;6526;54.312;13.092;2023-01-25T06:54:41;103786.00;;;1.40
12918;BMP180;6526;54.312;13.092;2023-01-25T06:57:07;103798.00;;;1.40
12918;BMP180;6526;54.312;13.092;2023-01-25T06:59:35;103792.00;;;1.40
12918;BMP180;6526;54.312;13.092;2023-01-25T07:02:01;103788.00;;;1.40
12918;BMP180;6526;54.312;13.092;2023-01-25T07:04:27;103792.00;;;1.40
12918;BMP180;6526;54.312;13.092;2023-01-25T07:06:53;103782.00;;;1.30
12918;BMP180;6526;54.312;13.092;2023-01-25T07:09:19;103782.00;;;1.40
12918;BMP180;6526;54.312;13.092;2023-01-25T07:11:49;103773.00;;;1.40
12918;BMP180;6526;54.312;13.092;2023-01-25T07:14:16;103781.00;;;1.50
12918;BMP180;6526;54.312;13.092;2023-01-25T07:16:42;103776.00;;;1.40
12918;BMP180;6526;54.312;13.092;2023-01-25T07:19:10;103779.00;;;1.40
12918;BMP180;6526;54.312;13.092;2023-01-25T07:21:39;103761.00;;;1.40
12918;BMP180;6526;54.312;13.092;2023-01-25T07:24:06;103763.00;;;1.50
12918;BMP180;6526;54.312;13.092;2023-01-25T07:26:32;103765.00;;;1.70
12918;BMP180;6526;54.312;13.092;2023-01-25T07:28:58;103767.00;;;1.70
12918;BMP180;6526;54.312;13.092;2023-01-25T07:31:25;103756.00;;;1.60
12918;BMP180;6526;54.312;13.092;2023-01-25T07:33:54;103752.00;;;1.50
12918;BMP180;6526;54.312;13.092;2023-01-25T07:36:21;103742.00;;;1.40
12918;BMP180;6526;54.312;13.092;2023-01-25T07:38:48;103749.00;;;1.40
12918;BMP180;6526;54.312;13.092;2023-01-25T07:41:17;103759.00;;;1.40
12918;BMP180;6526;54.312;13.092;2023-01-25T07:43:43;103754.00;;;1.50
12918;BMP180;6526;54.312;13.092;2023-01-25T07:46:11;103761.00;;;1.50
12918;BMP180;6526;54.312;13.092;2023-01-25T07:48:40;103759.00;;;1.30
12918;BMP180;6526;54.312;13.092;2023-01-25T07:51:10;103765.00;;;1.20
12918;BMP180;6526;54.312;13.092;2023-01-25T07:54:03;103763.00;;;1.20
12918;BMP180;6526;54.312;13.092;2023-01-25T07:56:34;103763.00;;;1.30
12918;BMP180;6526;54.312;13.092;2023-01-25T07:59:01;103766.00;;;1.40
12918;BMP180;6526;54.312;13.092;2023-01-25T08:01:28;103762.00;;;1.30
12918;BMP180;6526;54.312;13.092;2023-01-25T08:03:56;103751.00;;;1.30
12918;BMP180;6526;54.312;13.092;2023-01-25T08:06:25;103745.00;;;1.40
12918;BMP180;6526;54.312;13.092;2023-01-25T08:08:53;103739.00;;;1.40
12918;BMP180;6526;54.312;13.092;2023-01-25T08:11:22;103743.00;;;1.40
12918;BMP180;6526;54.312;13.092;2023-01-25T08:13:49;103732.00;;;1.30
12918;BMP180;6526;54.312;13.092;2023-01-25T08:16:17;103727.00;;;1.40
12918;BMP180;6526;54.312;13.092;2023-01-25T08:18:50;103728.00;;;1.50
12918;BMP180;6526;54.312;13.092;2023-01-25T08:21:16;103727.00;;;1.50
12918;BMP180;6526;54.312;13.092;2023-01-25T08:23:43;103730.00;;;1.40
12918;BMP180;6526;54.312;13.092;2023-01-25T08:26:11;103726.00;;;1.30
12918;BMP180;6526;54.312;13.092;2023-01-25T08:28:37;103721.00;;;1.30
12918;BMP180;6526;54.312;13.092;2023-01-25T08:31:12;103718.00;;;1.40
12918;BMP180;6526;54.312;13.092;2023-01-25T08:33:39;103716.00;;;1.40
12918;BMP180;6526;54.312;13.092;2023-01-25T08:36:06;103703.00;;;1.40
12918;BMP180;6526;54.312;13.092;2023-01-25T08:38:35;103709.00;;;1.20
12918;BMP180;6526;54.312;13.092;2023-01-25T08:41:20;103698.00;;;1.20
12918;BMP180;6526;54.312;13.092;2023-01-25T08:43:46;103696.00;;;1.30
12918;BMP180;6526;54.312;13.092;2023-01-25T08:46:14;103695.00;;;1.40
12918;BMP180;6526;54.312;13.092;2023-01-25T08:48:40;103683.00;;;1.40
12918;BMP180;6526;54.312;13.092;2023-01-25T08:51:13;103672.00;;;1.30
12918;BMP180;6526;54.312;13.092;2023-01-25T08:53:39;103668.00;;;1.40
12918;BMP180;6526;54.312;13.092;2023-01-25T08:56:09;103664.00;;;1.40
12918;BMP180;6526;54.312;13.092;2023-01-25T08:58:38;103672.00;;;1.40
12918;BMP180;6526;54.312;13.092;2023-01-25T09:01:05;103670.00;;;1.40
12918;BMP180;6526;54.312;13.092;2023-01-25T09:03:35;103673.00;;;1.40
12918;BMP180;6526;54.312;13.092;2023-01-25T09:06:02;103673.00;;;1.40
12918;BMP180;6526;54.312;13.092;2023-01-25T09:08:28;103651.00;;;1.40
12918;BMP180;6526;54.312;13.092;2023-01-25T09:10:54;103653.00;;;1.30
12918;BMP180;6526;54.312;13.092;2023-01-25T09:13:20;103641.00;;;1.30
12918;BMP180;6526;54.312;13.092;2023-01-25T09:15:46;103634.00;;;1.30
12918;BMP180;6526;54.312;13.092;2023-01-25T09:18:12;103630.00;;;1.40
12918;BMP180;6526;54.312;13.092;2023-01-25T09:20:39;103638.00;;;1.40
12918;BMP180;6526;54.312;13.092;2023-01-25T09:23:05;103640.00;;;1.50
12918;BMP180;6526;54.312;13.092;2023-01-25T09:25:31;103655.00;;;1.60
12918;BMP180;6526;54.312;13.092;2023-01-25T09:27:57;103635.00;;;1.50
12918;BMP180;6526;54.312;13.092;2023-01-25T09:30:23;103636.00;;;1.40
12918;BMP180;6526;54.312;13.092;2023-01-25T09:32:49;103634.00;;;1.60
12918;BMP180;6526;54.312;13.092;2023-01-25T09:35:16;103639.00;;;1.60
12918;BMP180;6526;54.312;13.092;2023-01-25T09:37:42;103629.00;;;1.70
12918;BMP180;6526;54.312;13.092;2023-01-25T09:40:36;103632.00;;;1.50
12918;BMP180;6526;54.312;13.092;2023-01-25T09:45:54;103632.00;;;1.50
12918;BMP180;6526;54.312;13.092;2023-01-25T09:51:52;103628.00;;;1.40
12918;BMP180;6526;54.312;13.092;2023-01-25T09:54:22;103621.00;;;1.40
12918;BMP180;6526;54.312;13.092;2023-01-25T09:56:51;103623.00;;;1.60
12918;BMP180;6526;54.312;13.092;2023-01-25T09:59:21;103606.00;;;1.50
12918;BMP180;6526;54.312;13.092;2023-01-25T10:01:54;103628.00;;;1.30
12918;BMP180;6526;54.312;13.092;2023-01-25T10:04:40;103629.00;;;1.40
12918;BMP180;6526;54.312;13.092;2023-01-25T10:07:26;103622.00;;;1.30
12918;BMP180;6526;54.312;13.092;2023-01-25T10:10:12;103621.00;;;1.40
12918;BMP180;6526;54.312;13.092;2023-01-25T10:12:41;103622.00;;;1.40
12918;BMP180;6526;54.312;13.092;2023-01-25T10:15:27;103618.00;;;1.50
12918;BMP180;6526;54.312;13.092;2023-01-25T10:18:25;103624.00;;;1.40
12918;BMP180;6526;54.312;13.092;2023-01-25T10:20:57;103626.00;;;1.40
12918;BMP180;6526;54.312;13.092;2023-01-25T10:23:50;103616.00;;;1.30
12918;BMP180;6526;54.312;13.092;2023-01-25T10:26:26;103599.00;;;1.40
12918;BMP180;6526;54.312;13.092;2023-01-25T10:29:07;103610.00;;;1.40
12918;BMP180;6526;54.312;13.092;2023-01-25T10:31:40;103599.00;;;1.40
12918;BMP180;6526;54.312;13.092;2023-01-25T10:36:55;103591.00;;;1.40
12918;BMP180;6526;54.312;13.092;2023-01-25T10:39:22;103574.00;;;1.50
12918;BMP180;6526;54.312;13.092;2023-01-25T10:42:10;103570.00;;;1.60
12918;BMP180;6526;54.312;13.092;2023-01-25T10:44:37;103569.00;;;1.50
12918;BMP180;6526;54.312;13.092;2023-01-25T10:47:04;103573.00;;;1.60
12918;BMP180;6526;54.312;13.092;2023-01-25T10:49:39;103574.00;;;1.50
12918;BMP180;6526;54.312;13.092;2023-01-25T10:52:15;103564.00;;;1.40
12918;BMP180;6526;54.312;13.092;2023-01-25T10:54:41;103570.00;;;1.40
12918;BMP180;6526;54.312;13.092;2023-01-25T10:57:11;103552.00;;;1.30
12918;BMP180;6526;54.312;13.092;2023-01-25T10:59:38;103549.00;;;1.40
12918;BMP180;6526;54.312;13.092;2023-01-25T11:05:24;103549.00;;;1.40
12918;BMP180;6526;54.312;13.092;2023-01-25T11:07:50;103543.00;;;1.30
12918;BMP180;6526;54.312;13.092;2023-01-25T11:15:45;103529.00;;;1.50
12918;BMP180;6526;54.312;13.092;2023-01-25T11:18:24;103520.00;;;1.60
12918;BMP180;6526;54.312;13.092;2023-01-25T11:21:13;103509.00;;;1.50
12918;BMP180;6526;54.312;13.092;2023-01-25T11:23:41;103509.00;;;1.40
12918;BMP180;6526;54.312;13.092;2023-01-25T11:26:15;103504.00;;;1.50
12918;BMP180;6526;54.312;13.092;2023-01-25T11:28:43;103502.00;;;1.70
12918;BMP180;6526;54.312;13.092;2023-01-25T11:31:12;103496.00;;;1.60
12918;BMP180;6526;54.312;13.092;2023-01-25T11:33:39;103501.00;;;1.60
12918;BMP180;6526;54.312;13.092;2023-01-25T11:36:56;103489.00;;;1.70
12918;BMP180;6526;54.312;13.092;2023-01-25T11:39:08;103473.00;;;1.80
12918;BMP180;6526;54.312;13.092;2023-01-25T11:41:44;103488.00;;;1.80
12918;BMP180;6526;54.312;13.092;2023-01-25T11:48:02;103473.00;;;1.60
12918;BMP180;6526;54.312;13.092;2023-01-25T11:56:05;103441.00;;;1.70
12918;BMP180;6526;54.312;13.092;2023-01-25T12:01:53;103440.00;;;1.50
12918;BMP180;6526;54.312;13.092;2023-01-25T12:10:32;103420.00;;;1.50
12918;BMP180;6526;54.312;13.092;2023-01-25T12:13:16;103428.00;;;1.60
12918;BMP180;6526;54.312;13.092;2023-01-25T12:16:04;103421.00;;;1.60
12918;BMP180;6526;54.312;13.092;2023-01-25T12:19:00;103413.00;;;1.70
12918;BMP180;6526;54.312;13.092;2023-01-25T12:27:24;103416.00;;;1.90
12918;BMP180;6526;54.312;13.092;2023-01-25T12:29:57;103398.00;;;1.90
12918;BMP180;6526;54.312;13.092;2023-01-25T12:33:18;103396.00;;;1.80
12918;BMP180;6526;54.312;13.092;2023-01-25T12:35:48;103387.00;;;1.80
12918;BMP180;6526;54.312;13.092;2023-01-25T12:38:33;103376.00;;;1.90
12918;BMP180;6526;54.312;13.092;2023-01-25T12:41:25;103370.00;;;1.80
12918;BMP180;6526;54.312;13.092;2023-01-25T12:44:15;103368.00;;;1.70
12918;BMP180;6526;54.312;13.092;2023-01-25T12:47:04;103370.00;;;1.80
12918;BMP180;6526;54.312;13.092;2023-01-25T12:49:49;103356.00;;;1.90
12918;BMP180;6526;54.312;13.092;2023-01-25T12:52:38;103362.00;;;1.90
12918;BMP180;6526;54.312;13.092;2023-01-25T12:55:12;103360.00;;;1.80
12918;BMP180;6526;54.312;13.092;2023-01-25T13:00:30;103351.00;;;1.80
12918;BMP180;6526;54.312;13.092;2023-01-25T13:06:12;103336.00;;;1.90
12918;BMP180;6526;54.312;13.092;2023-01-25T13:09:17;103340.00;;;1.90
12918;BMP180;6526;54.312;13.092;2023-01-25T13:11:47;103342.00;;;1.80
12918;BMP180;6526;54.312;13.092;2023-01-25T13:16:49;103324.00;;;1.90
12918;BMP180;6526;54.312;13.092;2023-01-25T13:19:39;103341.00;;;1.70
12918;BMP180;6526;54.312;13.092;2023-01-25T13:22:12;103329.00;;;1.60
12918;BMP180;6526;54.312;13.092;2023-01-25T13:25:21;103310.00;;;1.70
12918;BMP180;6526;54.312;13.092;2023-01-25T13:27:47;103314.00;;;1.80
12918;BMP180;6526;54.312;13.092;2023-01-25T13:30:32;103319.00;;;1.90
12918;BMP180;6526;54.312;13.092;2023-01-25T13:33:04;103303.00;;;1.90
12918;BMP180;6526;54.312;13.092;2023-01-25T13:41:02;103289.00;;;1.80
12918;BMP180;6526;54.312;13.092;2023-01-25T13:43:29;103283.00;;;1.80
12918;BMP180;6526;54.312;13.092;2023-01-25T13:45:55;103278.00;;;1.80
12918;BMP180;6526;54.312;13.092;2023-01-25T13:48:23;103275.00;;;2.00
12918;BMP180;6526;54.312;13.092;2023-01-25T13:50:54;103262.00;;;2.00
12918;BMP180;6526;54.312;13.092;2023-01-25T13:53:24;103254.00;;;2.20
12918;BMP180;6526;54.312;13.092;2023-01-25T13:55:56;103267.00;;;2.20
12918;BMP180;6526;54.312;13.092;2023-01-25T13:58:29;103260.00;;;2.00
12918;BMP180;6526;54.312;13.092;2023-01-25T14:03:28;103256.00;;;2.00
12918;BMP180;6526;54.312;13.092;2023-01-25T14:05:57;103254.00;;;1.90
12918;BMP180;6526;54.312;13.092;2023-01-25T14:08:25;103241.00;;;1.90
12918;BMP180;6526;54.312;13.092;2023-01-25T14:10:53;103240.00;;;2.00
12918;BMP180;6526;54.312;13.092;2023-01-25T14:13:20;103245.00;;;2.00
12918;BMP180;6526;54.312;13.092;2023-01-25T14:16:00;103242.00;;;1.90
12918;BMP180;6526;54.312;13.092;2023-01-25T14:18:34;103239.00;;;1.80
12918;BMP180;6526;54.312;13.092;2023-01-25T14:21:18;103227.00;;;1.80
12918;BMP180;6526;54.312;13.092;2023-01-25T14:23:45;103222.00;;;1.80
12918;BMP180;6526;54.312;13.092;2023-01-25T14:26:20;103226.00;;;1.80
12918;BMP180;6526;54.312;13.092;2023-01-25T14:28:51;103229.00;;;1.90
12918;BMP180;6526;54.312;13.092;2023-01-25T14:31:20;103231.00;;;1.80
12918;BMP180;6526;54.312;13.092;2023-01-25T14:33:47;103234.00;;;1.80
12918;BMP180;6526;54.312;13.092;2023-01-25T14:36:20;103228.00;;;1.90
12918;BMP180;6526;54.312;13.092;2023-01-25T14:38:46;103227.00;;;2.00
12918;BMP180;6526;54.312;13.092;2023-01-25T14:41:19;103216.00;;;2.10
12918;BMP180;6526;54.312;13.092;2023-01-25T14:43:48;103210.00;;;2.10
12918;BMP180;6526;54.312;13.092;2023-01-25T14:48:48;103213.00;;;1.90
12918;BMP180;6526;54.312;13.092;2023-01-25T14:51:24;103207.00;;;1.80
12918;BMP180;6526;54.312;13.092;2023-01-25T14:54:02;103211.00;;;2.00
12918;BMP180;6526;54.312;13.092;2023-01-25T14:56:51;103199.00;;;1.90
12918;BMP180;6526;54.312;13.092;2023-01-25T14:59:37;103195.00;;;2.10
12918;BMP180;6526;54.312;13.092;2023-01-25T15:07:44;103177.00;;;2.00
12918;BMP180;6526;54.312;13.092;2023-01-25T15:10:22;103175.00;;;2.00
12918;BMP180;6526;54.312;13.092;2023-01-25T15:15:26;103179.00;;;2.00
12918;BMP180;6526;54.312;13.092;2023-01-25T15:17:52;103185.00;;;2.10
12918;BMP180;6526;54.312;13.092;2023-01-25T15:20:36;103172.00;;;2.00
12918;BMP180;6526;54.312;13.092;2023-01-25T15:25:57;103170.00;;;1.90
12918;BMP180;6526;54.312;13.092;2023-01-25T15:28:26;103162.00;;;2.00
12918;BMP180;6526;54.312;13.092;2023-01-25T15:30:53;103153.00;;;2.00
12918;BMP180;6526;54.312;13.092;2023-01-25T15:33:22;103153.00;;;1.90
12918;BMP180;6526;54.312;13.092;2023-01-25T15:35:50;103146.00;;;1.90
12918;BMP180;6526;54.312;13.092;2023-01-25T15:38:16;103153.00;;;2.00
12918;BMP180;6526;54.312;13.092;2023-01-25T15:40:43;103139.00;;;1.80
12918;BMP180;6526;54.312;13.092;2023-01-25T15:43:14;103151.00;;;1.80
12918;BMP180;6526;54.312;13.092;2023-01-25T15:45:45;103139.00;;;1.90